CLT TRACON Summary / KCLT TAF
CLT TRACON Summary:
Expect scattered thunderstorms mostly north of CLT until 03z with continued showers through most of the night. Cells will move northeast at 20-25kts. IFR conditions will quickly settle back in once the convection diminishes with LIFR ceilings/fog after 06z. Surface winds steadily veer to the southeast at 8-10kts through the night. Flight hazards in the TRACON airspace outside convection: None expected.

Updated: 4/30/2016 8:15 PM
CLT Terminal Aerodrome Forecast:

FTUS80 KCLT 010539 RRA
KCLT 010538Z 0106/0206 11009KT P6SM BKN007
      TEMPO 0107/0109 3SM -RA BR SCT007 BKN021
     FM010900 14008KT 5SM BR OVC008
     FM011400 18009KT P6SM SCT008 BKN012
     FM011700 19009KT P6SM OVC020 PROB30 0117/0123 4SM -TSRA
      OVC015CB
     FM012300 21008KT P6SM VCSH BKN040
CLT TRACON Area Remark:
SCATTERED TS EXPECTED ALL QUADS UNTIL 03Z. LIFR/IFR EXPECTED AFTER 06Z.
Convective Gate Forecast / Collaborative Convective Forecast Product / Vertical Wind Profile
Convective Gate Forecast
-->
AIRMETs & SIGMETS/ Southeast Radar loop / Satellite Image (click on image to enlarge)

Southeast Radar Loop

 



USA.gov is the U.S. government's official web portal to all federal, state and local government web resources and services.